sensor_id;sensor_type;location;lat;lon;timestamp;temperature;humidity
72440;DHT22;60446;50.752;4.352;2023-08-01T00:01:10;17.30;83.40
72440;DHT22;60446;50.752;4.352;2023-08-01T00:03:37;17.30;83.20
72440;DHT22;60446;50.752;4.352;2023-08-01T00:06:05;17.30;83.60
72440;DHT22;60446;50.752;4.352;2023-08-01T00:08:32;17.30;83.40
72440;DHT22;60446;50.752;4.352;2023-08-01T00:10:59;17.20;83.50
72440;DHT22;60446;50.752;4.352;2023-08-01T00:13:26;17.20;83.50
72440;DHT22;60446;50.752;4.352;2023-08-01T00:15:53;17.20;83.20
72440;DHT22;60446;50.752;4.352;2023-08-01T00:18:33;17.20;83.50
72440;DHT22;60446;50.752;4.352;2023-08-01T00:21:01;17.20;83.40
72440;DHT22;60446;50.752;4.352;2023-08-01T00:23:29;17.20;83.20
72440;DHT22;60446;50.752;4.352;2023-08-01T00:25:56;17.10;82.90
72440;DHT22;60446;50.752;4.352;2023-08-01T00:28:23;17.10;83.20
72440;DHT22;60446;50.752;4.352;2023-08-01T00:30:50;17.10;83.00
72440;DHT22;60446;50.752;4.352;2023-08-01T00:33:17;17.10;82.80
72440;DHT22;60446;50.752;4.352;2023-08-01T00:35:44;17.10;83.30
72440;DHT22;60446;50.752;4.352;2023-08-01T00:38:20;17.00;83.10
72440;DHT22;60446;50.752;4.352;2023-08-01T00:40:47;17.00;83.70
72440;DHT22;60446;50.752;4.352;2023-08-01T00:43:14;16.90;83.50
72440;DHT22;60446;50.752;4.352;2023-08-01T00:45:42;16.90;83.70
72440;DHT22;60446;50.752;4.352;2023-08-01T00:48:09;16.90;83.30
72440;DHT22;60446;50.752;4.352;2023-08-01T00:50:36;16.90;83.60
72440;DHT22;60446;50.752;4.352;2023-08-01T00:53:05;16.90;83.20
72440;DHT22;60446;50.752;4.352;2023-08-01T00:55:33;16.80;83.40
72440;DHT22;60446;50.752;4.352;2023-08-01T00:58:01;16.80;83.60
72440;DHT22;60446;50.752;4.352;2023-08-01T01:00:28;16.80;83.40
72440;DHT22;60446;50.752;4.352;2023-08-01T01:02:56;16.80;83.40
72440;DHT22;60446;50.752;4.352;2023-08-01T01:05:25;16.90;82.50
72440;DHT22;60446;50.752;4.352;2023-08-01T01:07:54;16.80;83.20
72440;DHT22;60446;50.752;4.352;2023-08-01T01:10:22;16.80;83.00
72440;DHT22;60446;50.752;4.352;2023-08-01T01:12:49;16.80;82.90
72440;DHT22;60446;50.752;4.352;2023-08-01T01:15:17;16.80;83.30
72440;DHT22;60446;50.752;4.352;2023-08-01T01:17:44;16.80;82.80
72440;DHT22;60446;50.752;4.352;2023-08-01T01:20:11;16.70;82.90
72440;DHT22;60446;50.752;4.352;2023-08-01T01:22:40;16.70;83.00
72440;DHT22;60446;50.752;4.352;2023-08-01T01:25:08;16.80;82.90
72440;DHT22;60446;50.752;4.352;2023-08-01T01:27:37;16.80;82.80
72440;DHT22;60446;50.752;4.352;2023-08-01T01:30:06;16.70;82.80
72440;DHT22;60446;50.752;4.352;2023-08-01T01:32:34;16.70;82.40
72440;DHT22;60446;50.752;4.352;2023-08-01T01:35:03;16.70;82.50
72440;DHT22;60446;50.752;4.352;2023-08-01T01:37:31;16.60;82.50
72440;DHT22;60446;50.752;4.352;2023-08-01T01:39:58;16.70;82.50
72440;DHT22;60446;50.752;4.352;2023-08-01T01:42:25;16.60;82.70
72440;DHT22;60446;50.752;4.352;2023-08-01T01:44:52;16.70;82.40
72440;DHT22;60446;50.752;4.352;2023-08-01T01:47:20;16.60;82.50
72440;DHT22;60446;50.752;4.352;2023-08-01T01:49:47;16.60;82.10
72440;DHT22;60446;50.752;4.352;2023-08-01T01:52:14;16.70;82.30
72440;DHT22;60446;50.752;4.352;2023-08-01T01:54:41;16.60;82.30
72440;DHT22;60446;50.752;4.352;2023-08-01T01:57:08;16.60;81.80
72440;DHT22;60446;50.752;4.352;2023-08-01T01:59:36;16.60;82.10
72440;DHT22;60446;50.752;4.352;2023-08-01T02:02:03;16.60;81.90
72440;DHT22;60446;50.752;4.352;2023-08-01T02:04:30;16.60;82.10
72440;DHT22;60446;50.752;4.352;2023-08-01T02:06:58;16.50;82.30
72440;DHT22;60446;50.752;4.352;2023-08-01T02:09:25;16.50;81.60
72440;DHT22;60446;50.752;4.352;2023-08-01T02:11:52;16.50;81.90
72440;DHT22;60446;50.752;4.352;2023-08-01T02:14:19;16.40;81.80
72440;DHT22;60446;50.752;4.352;2023-08-01T02:16:47;16.40;82.30
72440;DHT22;60446;50.752;4.352;2023-08-01T02:19:14;16.40;81.90
72440;DHT22;60446;50.752;4.352;2023-08-01T02:21:41;16.40;82.30
72440;DHT22;60446;50.752;4.352;2023-08-01T02:24:08;16.40;82.30
72440;DHT22;60446;50.752;4.352;2023-08-01T02:26:35;16.40;82.00
72440;DHT22;60446;50.752;4.352;2023-08-01T02:29:02;16.30;81.80
72440;DHT22;60446;50.752;4.352;2023-08-01T02:31:29;16.30;81.80
72440;DHT22;60446;50.752;4.352;2023-08-01T02:33:57;16.30;81.80
72440;DHT22;60446;50.752;4.352;2023-08-01T02:36:24;16.30;81.90
72440;DHT22;60446;50.752;4.352;2023-08-01T02:38:51;16.30;82.10
72440;DHT22;60446;50.752;4.352;2023-08-01T02:41:18;16.30;81.50
72440;DHT22;60446;50.752;4.352;2023-08-01T02:43:45;16.20;81.80
72440;DHT22;60446;50.752;4.352;2023-08-01T02:46:13;16.30;81.80
72440;DHT22;60446;50.752;4.352;2023-08-01T02:48:41;16.20;82.30
72440;DHT22;60446;50.752;4.352;2023-08-01T02:51:08;16.20;82.50
72440;DHT22;60446;50.752;4.352;2023-08-01T02:53:38;16.20;81.70
72440;DHT22;60446;50.752;4.352;2023-08-01T02:56:08;16.20;82.60
72440;DHT22;60446;50.752;4.352;2023-08-01T02:58:37;16.30;82.10
72440;DHT22;60446;50.752;4.352;2023-08-01T03:01:08;16.20;82.20
72440;DHT22;60446;50.752;4.352;2023-08-01T03:03:39;16.30;81.90
72440;DHT22;60446;50.752;4.352;2023-08-01T03:06:07;16.30;82.00
72440;DHT22;60446;50.752;4.352;2023-08-01T03:08:34;16.30;82.20
72440;DHT22;60446;50.752;4.352;2023-08-01T03:11:01;16.30;82.40
72440;DHT22;60446;50.752;4.352;2023-08-01T03:13:29;16.40;81.70
72440;DHT22;60446;50.752;4.352;2023-08-01T03:15:56;16.30;81.90
72440;DHT22;60446;50.752;4.352;2023-08-01T03:18:23;16.20;82.40
72440;DHT22;60446;50.752;4.352;2023-08-01T03:20:50;16.20;82.40
72440;DHT22;60446;50.752;4.352;2023-08-01T03:23:18;16.30;82.60
72440;DHT22;60446;50.752;4.352;2023-08-01T03:25:46;16.30;82.40
72440;DHT22;60446;50.752;4.352;2023-08-01T03:28:13;16.40;81.80
72440;DHT22;60446;50.752;4.352;2023-08-01T03:30:41;16.30;82.30
72440;DHT22;60446;50.752;4.352;2023-08-01T03:33:08;16.30;82.10
72440;DHT22;60446;50.752;4.352;2023-08-01T03:35:35;16.40;82.10
72440;DHT22;60446;50.752;4.352;2023-08-01T03:38:02;16.30;82.30
72440;DHT22;60446;50.752;4.352;2023-08-01T03:40:30;16.30;82.10
72440;DHT22;60446;50.752;4.352;2023-08-01T03:42:57;16.30;82.40
72440;DHT22;60446;50.752;4.352;2023-08-01T03:45:24;16.30;82.20
72440;DHT22;60446;50.752;4.352;2023-08-01T03:47:51;16.30;82.10
72440;DHT22;60446;50.752;4.352;2023-08-01T03:50:19;16.30;82.00
72440;DHT22;60446;50.752;4.352;2023-08-01T03:52:48;16.30;82.70
72440;DHT22;60446;50.752;4.352;2023-08-01T03:55:16;16.30;82.90
72440;DHT22;60446;50.752;4.352;2023-08-01T03:57:43;16.30;82.70
72440;DHT22;60446;50.752;4.352;2023-08-01T04:00:10;16.30;82.80
72440;DHT22;60446;50.752;4.352;2023-08-01T04:02:41;16.30;82.50
72440;DHT22;60446;50.752;4.352;2023-08-01T04:05:11;16.20;82.50
72440;DHT22;60446;50.752;4.352;2023-08-01T04:07:39;16.20;82.80
72440;DHT22;60446;50.752;4.352;2023-08-01T04:10:06;16.10;82.80
72440;DHT22;60446;50.752;4.352;2023-08-01T04:12:34;16.20;83.00
72440;DHT22;60446;50.752;4.352;2023-08-01T04:15:01;16.10;83.00
72440;DHT22;60446;50.752;4.352;2023-08-01T04:17:28;16.10;82.90
72440;DHT22;60446;50.752;4.352;2023-08-01T04:19:56;16.20;82.70
72440;DHT22;60446;50.752;4.352;2023-08-01T04:22:23;16.10;82.40
72440;DHT22;60446;50.752;4.352;2023-08-01T04:24:51;16.10;82.50
72440;DHT22;60446;50.752;4.352;2023-08-01T04:27:18;16.00;82.70
72440;DHT22;60446;50.752;4.352;2023-08-01T04:29:45;16.00;82.50
72440;DHT22;60446;50.752;4.352;2023-08-01T04:32:13;16.00;82.40
72440;DHT22;60446;50.752;4.352;2023-08-01T04:34:42;16.00;82.30
72440;DHT22;60446;50.752;4.352;2023-08-01T04:37:09;16.00;82.70
72440;DHT22;60446;50.752;4.352;2023-08-01T04:39:37;16.00;82.70
72440;DHT22;60446;50.752;4.352;2023-08-01T04:42:04;16.00;82.50
72440;DHT22;60446;50.752;4.352;2023-08-01T04:44:32;16.00;82.60
72440;DHT22;60446;50.752;4.352;2023-08-01T04:46:59;16.00;82.20
72440;DHT22;60446;50.752;4.352;2023-08-01T04:49:27;16.00;82.10
72440;DHT22;60446;50.752;4.352;2023-08-01T04:51:55;16.00;82.50
72440;DHT22;60446;50.752;4.352;2023-08-01T04:54:22;16.10;83.10
72440;DHT22;60446;50.752;4.352;2023-08-01T04:56:49;16.10;82.40
72440;DHT22;60446;50.752;4.352;2023-08-01T04:59:16;16.20;82.00
72440;DHT22;60446;50.752;4.352;2023-08-01T05:01:44;16.20;82.50
72440;DHT22;60446;50.752;4.352;2023-08-01T05:04:11;16.20;82.00
72440;DHT22;60446;50.752;4.352;2023-08-01T05:06:38;16.20;81.90
72440;DHT22;60446;50.752;4.352;2023-08-01T05:09:06;16.10;82.40
72440;DHT22;60446;50.752;4.352;2023-08-01T05:11:33;16.20;82.30
72440;DHT22;60446;50.752;4.352;2023-08-01T05:14:01;16.20;82.50
72440;DHT22;60446;50.752;4.352;2023-08-01T05:16:28;16.20;82.40
72440;DHT22;60446;50.752;4.352;2023-08-01T05:18:55;16.30;82.10
72440;DHT22;60446;50.752;4.352;2023-08-01T05:21:22;16.30;82.30
72440;DHT22;60446;50.752;4.352;2023-08-01T05:23:49;16.30;81.80
72440;DHT22;60446;50.752;4.352;2023-08-01T05:26:17;16.40;81.50
72440;DHT22;60446;50.752;4.352;2023-08-01T05:28:44;16.50;81.50
72440;DHT22;60446;50.752;4.352;2023-08-01T05:31:11;16.50;81.10
72440;DHT22;60446;50.752;4.352;2023-08-01T05:33:38;16.50;81.40
72440;DHT22;60446;50.752;4.352;2023-08-01T05:36:06;16.50;81.10
72440;DHT22;60446;50.752;4.352;2023-08-01T05:38:33;16.50;81.00
72440;DHT22;60446;50.752;4.352;2023-08-01T05:41:00;16.60;81.20
72440;DHT22;60446;50.752;4.352;2023-08-01T05:43:27;16.60;80.90
72440;DHT22;60446;50.752;4.352;2023-08-01T05:45:55;16.60;81.30
72440;DHT22;60446;50.752;4.352;2023-08-01T05:48:23;16.60;80.90
72440;DHT22;60446;50.752;4.352;2023-08-01T05:50:50;16.70;81.00
72440;DHT22;60446;50.752;4.352;2023-08-01T05:53:17;16.80;80.70
72440;DHT22;60446;50.752;4.352;2023-08-01T05:55:44;16.80;79.50
72440;DHT22;60446;50.752;4.352;2023-08-01T05:58:11;16.80;80.60
72440;DHT22;60446;50.752;4.352;2023-08-01T06:00:38;16.80;79.70
72440;DHT22;60446;50.752;4.352;2023-08-01T06:03:06;16.90;79.60
72440;DHT22;60446;50.752;4.352;2023-08-01T06:05:33;16.90;79.40
72440;DHT22;60446;50.752;4.352;2023-08-01T06:08:00;17.00;80.20
72440;DHT22;60446;50.752;4.352;2023-08-01T06:10:28;17.00;78.90
72440;DHT22;60446;50.752;4.352;2023-08-01T06:12:55;17.00;78.90
72440;DHT22;60446;50.752;4.352;2023-08-01T06:15:22;17.10;79.60
72440;DHT22;60446;50.752;4.352;2023-08-01T06:17:49;17.10;79.50
72440;DHT22;60446;50.752;4.352;2023-08-01T06:20:16;17.20;79.50
72440;DHT22;60446;50.752;4.352;2023-08-01T06:22:43;17.30;78.60
72440;DHT22;60446;50.752;4.352;2023-08-01T06:25:11;17.30;78.00
72440;DHT22;60446;50.752;4.352;2023-08-01T06:27:38;17.40;78.00
72440;DHT22;60446;50.752;4.352;2023-08-01T06:30:05;17.60;77.80
72440;DHT22;60446;50.752;4.352;2023-08-01T06:32:33;17.60;77.80
72440;DHT22;60446;50.752;4.352;2023-08-01T06:35:00;17.70;77.70
72440;DHT22;60446;50.752;4.352;2023-08-01T06:37:27;17.70;77.40
72440;DHT22;60446;50.752;4.352;2023-08-01T06:39:56;17.80;77.80
72440;DHT22;60446;50.752;4.352;2023-08-01T06:42:24;17.80;77.60
72440;DHT22;60446;50.752;4.352;2023-08-01T06:44:51;17.90;77.30
72440;DHT22;60446;50.752;4.352;2023-08-01T06:47:19;17.90;77.00
72440;DHT22;60446;50.752;4.352;2023-08-01T06:49:46;17.90;77.10
72440;DHT22;60446;50.752;4.352;2023-08-01T06:52:13;17.80;76.40
72440;DHT22;60446;50.752;4.352;2023-08-01T06:54:40;17.80;77.10
72440;DHT22;60446;50.752;4.352;2023-08-01T06:57:07;17.80;75.40
72440;DHT22;60446;50.752;4.352;2023-08-01T06:59:34;17.80;78.10
72440;DHT22;60446;50.752;4.352;2023-08-01T07:02:02;18.00;76.70
72440;DHT22;60446;50.752;4.352;2023-08-01T07:04:29;18.20;76.50
72440;DHT22;60446;50.752;4.352;2023-08-01T07:06:56;18.20;75.70
72440;DHT22;60446;50.752;4.352;2023-08-01T07:09:23;18.30;75.40
72440;DHT22;60446;50.752;4.352;2023-08-01T07:11:51;18.30;74.40
72440;DHT22;60446;50.752;4.352;2023-08-01T07:14:18;18.40;75.40
72440;DHT22;60446;50.752;4.352;2023-08-01T07:16:45;18.50;73.80
72440;DHT22;60446;50.752;4.352;2023-08-01T07:19:12;18.50;74.40
72440;DHT22;60446;50.752;4.352;2023-08-01T07:21:39;18.40;74.40
72440;DHT22;60446;50.752;4.352;2023-08-01T07:24:06;18.40;73.20
72440;DHT22;60446;50.752;4.352;2023-08-01T07:26:33;18.50;75.30
72440;DHT22;60446;50.752;4.352;2023-08-01T07:29:01;18.60;75.30
72440;DHT22;60446;50.752;4.352;2023-08-01T07:31:28;18.60;74.10
72440;DHT22;60446;50.752;4.352;2023-08-01T07:33:56;18.40;73.60
72440;DHT22;60446;50.752;4.352;2023-08-01T07:36:24;18.40;74.40
72440;DHT22;60446;50.752;4.352;2023-08-01T07:38:51;18.30;73.70
72440;DHT22;60446;50.752;4.352;2023-08-01T07:41:18;18.20;75.20
72440;DHT22;60446;50.752;4.352;2023-08-01T07:43:45;18.30;74.90
72440;DHT22;60446;50.752;4.352;2023-08-01T07:46:12;18.10;74.60
72440;DHT22;60446;50.752;4.352;2023-08-01T07:48:39;18.10;74.80
72440;DHT22;60446;50.752;4.352;2023-08-01T07:51:07;18.10;75.40
72440;DHT22;60446;50.752;4.352;2023-08-01T07:53:34;18.20;76.70
72440;DHT22;60446;50.752;4.352;2023-08-01T07:56:01;18.30;75.90
72440;DHT22;60446;50.752;4.352;2023-08-01T07:58:29;18.40;75.50
72440;DHT22;60446;50.752;4.352;2023-08-01T08:00:57;18.30;74.90
72440;DHT22;60446;50.752;4.352;2023-08-01T08:03:24;18.30;73.90
72440;DHT22;60446;50.752;4.352;2023-08-01T08:05:51;18.30;74.20
72440;DHT22;60446;50.752;4.352;2023-08-01T08:08:18;18.40;75.00
72440;DHT22;60446;50.752;4.352;2023-08-01T08:10:45;18.50;74.50
72440;DHT22;60446;50.752;4.352;2023-08-01T08:13:13;18.50;74.60
72440;DHT22;60446;50.752;4.352;2023-08-01T08:15:40;18.70;74.90
72440;DHT22;60446;50.752;4.352;2023-08-01T08:18:07;18.80;75.60
72440;DHT22;60446;50.752;4.352;2023-08-01T08:20:41;19.00;72.90
72440;DHT22;60446;50.752;4.352;2023-08-01T08:23:11;19.10;72.60
72440;DHT22;60446;50.752;4.352;2023-08-01T08:25:43;19.10;72.60
72440;DHT22;60446;50.752;4.352;2023-08-01T08:28:28;19.10;73.20
72440;DHT22;60446;50.752;4.352;2023-08-01T08:30:57;19.00;73.00
72440;DHT22;60446;50.752;4.352;2023-08-01T08:33:24;18.70;73.10
72440;DHT22;60446;50.752;4.352;2023-08-01T08:35:52;18.30;74.90
72440;DHT22;60446;50.752;4.352;2023-08-01T08:38:19;18.20;76.20
72440;DHT22;60446;50.752;4.352;2023-08-01T08:41:10;18.20;76.80
72440;DHT22;60446;50.752;4.352;2023-08-01T08:43:38;18.20;77.20
72440;DHT22;60446;50.752;4.352;2023-08-01T08:46:08;18.30;77.60
72440;DHT22;60446;50.752;4.352;2023-08-01T08:48:35;18.40;75.30
72440;DHT22;60446;50.752;4.352;2023-08-01T08:51:06;18.40;76.20
72440;DHT22;60446;50.752;4.352;2023-08-01T08:53:35;18.60;75.60
72440;DHT22;60446;50.752;4.352;2023-08-01T08:56:02;18.80;75.10
72440;DHT22;60446;50.752;4.352;2023-08-01T08:58:30;18.90;75.10
72440;DHT22;60446;50.752;4.352;2023-08-01T09:01:00;19.10;73.90
72440;DHT22;60446;50.752;4.352;2023-08-01T09:03:28;19.40;71.60
72440;DHT22;60446;50.752;4.352;2023-08-01T09:06:21;19.50;71.00
72440;DHT22;60446;50.752;4.352;2023-08-01T09:08:56;19.70;71.30
72440;DHT22;60446;50.752;4.352;2023-08-01T09:11:27;19.80;69.50
72440;DHT22;60446;50.752;4.352;2023-08-01T09:13:54;19.80;68.10
72440;DHT22;60446;50.752;4.352;2023-08-01T09:16:22;19.80;70.10
72440;DHT22;60446;50.752;4.352;2023-08-01T09:18:50;19.90;70.20
72440;DHT22;60446;50.752;4.352;2023-08-01T09:21:22;20.00;70.50
72440;DHT22;60446;50.752;4.352;2023-08-01T09:23:49;20.00;69.50
72440;DHT22;60446;50.752;4.352;2023-08-01T09:26:18;20.10;68.20
72440;DHT22;60446;50.752;4.352;2023-08-01T09:28:56;20.30;67.30
72440;DHT22;60446;50.752;4.352;2023-08-01T09:31:32;20.50;68.40
72440;DHT22;60446;50.752;4.352;2023-08-01T09:34:04;20.60;67.20
72440;DHT22;60446;50.752;4.352;2023-08-01T09:36:34;20.60;66.70
72440;DHT22;60446;50.752;4.352;2023-08-01T09:39:02;20.70;65.90
72440;DHT22;60446;50.752;4.352;2023-08-01T09:41:31;20.70;65.40
72440;DHT22;60446;50.752;4.352;2023-08-01T09:43:58;20.60;65.80
72440;DHT22;60446;50.752;4.352;2023-08-01T09:46:26;20.50;66.10
72440;DHT22;60446;50.752;4.352;2023-08-01T09:48:53;20.40;65.40
72440;DHT22;60446;50.752;4.352;2023-08-01T09:51:21;20.20;65.20
72440;DHT22;60446;50.752;4.352;2023-08-01T09:53:55;20.10;66.90
72440;DHT22;60446;50.752;4.352;2023-08-01T09:56:25;20.10;67.00
72440;DHT22;60446;50.752;4.352;2023-08-01T09:58:55;20.20;67.80
72440;DHT22;60446;50.752;4.352;2023-08-01T10:01:24;20.10;67.50
72440;DHT22;60446;50.752;4.352;2023-08-01T10:03:53;19.90;68.30
72440;DHT22;60446;50.752;4.352;2023-08-01T10:06:23;20.00;69.40
72440;DHT22;60446;50.752;4.352;2023-08-01T10:08:53;20.20;68.30
72440;DHT22;60446;50.752;4.352;2023-08-01T10:11:22;20.30;67.90
72440;DHT22;60446;50.752;4.352;2023-08-01T10:13:50;20.40;68.80
72440;DHT22;60446;50.752;4.352;2023-08-01T10:16:17;20.60;67.30
72440;DHT22;60446;50.752;4.352;2023-08-01T10:18:44;20.70;66.70
72440;DHT22;60446;50.752;4.352;2023-08-01T10:21:15;20.90;66.60
72440;DHT22;60446;50.752;4.352;2023-08-01T10:23:44;21.10;64.00
72440;DHT22;60446;50.752;4.352;2023-08-01T10:26:13;21.20;64.00
72440;DHT22;60446;50.752;4.352;2023-08-01T10:28:48;21.30;65.00
72440;DHT22;60446;50.752;4.352;2023-08-01T10:31:18;21.40;65.60
72440;DHT22;60446;50.752;4.352;2023-08-01T10:33:47;21.50;64.20
72440;DHT22;60446;50.752;4.352;2023-08-01T10:36:22;21.50;65.20
72440;DHT22;60446;50.752;4.352;2023-08-01T10:38:57;21.70;62.50
72440;DHT22;60446;50.752;4.352;2023-08-01T10:41:34;21.90;63.10
72440;DHT22;60446;50.752;4.352;2023-08-01T10:44:09;22.00;63.10
72440;DHT22;60446;50.752;4.352;2023-08-01T10:46:56;22.30;60.30
72440;DHT22;60446;50.752;4.352;2023-08-01T10:49:39;22.60;62.30
72440;DHT22;60446;50.752;4.352;2023-08-01T10:52:24;22.70;60.80
72440;DHT22;60446;50.752;4.352;2023-08-01T10:55:00;23.00;58.50
72440;DHT22;60446;50.752;4.352;2023-08-01T10:57:35;22.90;58.20
72440;DHT22;60446;50.752;4.352;2023-08-01T11:00:05;22.90;57.90
72440;DHT22;60446;50.752;4.352;2023-08-01T11:02:39;22.70;58.00
72440;DHT22;60446;50.752;4.352;2023-08-01T11:05:07;22.40;58.10
72440;DHT22;60446;50.752;4.352;2023-08-01T11:07:35;22.40;58.90
72440;DHT22;60446;50.752;4.352;2023-08-01T11:10:04;22.50;59.20
72440;DHT22;60446;50.752;4.352;2023-08-01T11:12:40;22.60;57.50
72440;DHT22;60446;50.752;4.352;2023-08-01T11:15:13;22.60;59.20
72440;DHT22;60446;50.752;4.352;2023-08-01T11:17:45;22.60;57.00
72440;DHT22;60446;50.752;4.352;2023-08-01T11:20:14;22.40;56.80
72440;DHT22;60446;50.752;4.352;2023-08-01T11:22:54;22.20;57.20
72440;DHT22;60446;50.752;4.352;2023-08-01T11:28:10;21.90;57.10
72440;DHT22;60446;50.752;4.352;2023-08-01T11:30:39;22.00;57.40
72440;DHT22;60446;50.752;4.352;2023-08-01T11:33:19;22.20;55.80
72440;DHT22;60446;50.752;4.352;2023-08-01T11:35:52;22.20;58.20
72440;DHT22;60446;50.752;4.352;2023-08-01T11:38:26;22.40;58.30
72440;DHT22;60446;50.752;4.352;2023-08-01T11:41:00;22.40;56.80
72440;DHT22;60446;50.752;4.352;2023-08-01T11:43:41;22.40;57.20
72440;DHT22;60446;50.752;4.352;2023-08-01T11:46:09;22.50;60.10
72440;DHT22;60446;50.752;4.352;2023-08-01T11:48:37;22.60;58.30
72440;DHT22;60446;50.752;4.352;2023-08-01T11:51:04;22.50;58.10
72440;DHT22;60446;50.752;4.352;2023-08-01T11:53:31;22.40;57.90
72440;DHT22;60446;50.752;4.352;2023-08-01T11:56:06;22.60;57.80
72440;DHT22;60446;50.752;4.352;2023-08-01T11:58:41;22.70;56.50
72440;DHT22;60446;50.752;4.352;2023-08-01T12:01:12;23.00;59.10
72440;DHT22;60446;50.752;4.352;2023-08-01T12:03:48;23.00;53.80
72440;DHT22;60446;50.752;4.352;2023-08-01T12:06:21;23.00;54.70
72440;DHT22;60446;50.752;4.352;2023-08-01T12:08:51;22.80;54.50
72440;DHT22;60446;50.752;4.352;2023-08-01T12:11:27;22.70;55.10
72440;DHT22;60446;50.752;4.352;2023-08-01T12:14:11;22.60;57.30
72440;DHT22;60446;50.752;4.352;2023-08-01T12:16:46;22.90;56.40
72440;DHT22;60446;50.752;4.352;2023-08-01T12:19:18;23.00;55.60
72440;DHT22;60446;50.752;4.352;2023-08-01T12:21:47;23.00;55.00
72440;DHT22;60446;50.752;4.352;2023-08-01T12:24:15;23.00;55.00
72440;DHT22;60446;50.752;4.352;2023-08-01T12:26:42;23.10;56.00
72440;DHT22;60446;50.752;4.352;2023-08-01T12:29:10;23.20;54.10
72440;DHT22;60446;50.752;4.352;2023-08-01T12:31:37;23.60;55.10
72440;DHT22;60446;50.752;4.352;2023-08-01T12:34:05;23.80;52.50
72440;DHT22;60446;50.752;4.352;2023-08-01T12:36:32;23.60;50.30
72440;DHT22;60446;50.752;4.352;2023-08-01T12:38:59;23.40;52.50
72440;DHT22;60446;50.752;4.352;2023-08-01T12:41:26;23.70;53.80
72440;DHT22;60446;50.752;4.352;2023-08-01T12:43:54;23.80;51.90
72440;DHT22;60446;50.752;4.352;2023-08-01T12:46:21;23.80;53.10
72440;DHT22;60446;50.752;4.352;2023-08-01T12:48:48;23.70;52.90
72440;DHT22;60446;50.752;4.352;2023-08-01T12:51:15;23.60;53.70
72440;DHT22;60446;50.752;4.352;2023-08-01T12:53:43;23.50;53.70
72440;DHT22;60446;50.752;4.352;2023-08-01T12:56:12;23.30;49.90
72440;DHT22;60446;50.752;4.352;2023-08-01T12:58:40;23.40;53.50
72440;DHT22;60446;50.752;4.352;2023-08-01T13:01:07;23.30;50.40
72440;DHT22;60446;50.752;4.352;2023-08-01T13:03:34;23.40;50.30
72440;DHT22;60446;50.752;4.352;2023-08-01T13:06:02;23.50;50.90
72440;DHT22;60446;50.752;4.352;2023-08-01T13:08:29;23.60;52.10
72440;DHT22;60446;50.752;4.352;2023-08-01T13:10:57;23.60;52.10
72440;DHT22;60446;50.752;4.352;2023-08-01T13:13:26;23.70;54.90
72440;DHT22;60446;50.752;4.352;2023-08-01T13:15:55;23.60;54.30
72440;DHT22;60446;50.752;4.352;2023-08-01T13:18:23;23.50;52.70
72440;DHT22;60446;50.752;4.352;2023-08-01T13:20:51;23.40;53.40
72440;DHT22;60446;50.752;4.352;2023-08-01T13:23:18;23.30;54.00
72440;DHT22;60446;50.752;4.352;2023-08-01T13:25:45;23.20;53.50
72440;DHT22;60446;50.752;4.352;2023-08-01T13:28:14;23.20;53.60
72440;DHT22;60446;50.752;4.352;2023-08-01T13:30:41;23.30;53.20
72440;DHT22;60446;50.752;4.352;2023-08-01T13:33:08;23.40;53.00
72440;DHT22;60446;50.752;4.352;2023-08-01T13:35:36;23.50;54.50
72440;DHT22;60446;50.752;4.352;2023-08-01T13:38:03;23.70;54.10
72440;DHT22;60446;50.752;4.352;2023-08-01T13:40:31;23.90;54.20
72440;DHT22;60446;50.752;4.352;2023-08-01T13:42:59;23.90;53.50
72440;DHT22;60446;50.752;4.352;2023-08-01T13:45:26;23.70;53.10
72440;DHT22;60446;50.752;4.352;2023-08-01T13:47:57;23.70;52.60
72440;DHT22;60446;50.752;4.352;2023-08-01T13:50:25;23.60;52.80
72440;DHT22;60446;50.752;4.352;2023-08-01T13:52:55;23.50;53.50
72440;DHT22;60446;50.752;4.352;2023-08-01T13:55:22;23.40;55.30
72440;DHT22;60446;50.752;4.352;2023-08-01T13:57:50;23.40;53.50
72440;DHT22;60446;50.752;4.352;2023-08-01T14:00:17;23.50;54.90
72440;DHT22;60446;50.752;4.352;2023-08-01T14:02:44;23.60;54.80
72440;DHT22;60446;50.752;4.352;2023-08-01T14:05:11;23.70;55.20
72440;DHT22;60446;50.752;4.352;2023-08-01T14:07:38;24.00;54.20
72440;DHT22;60446;50.752;4.352;2023-08-01T14:10:10;24.10;49.00
72440;DHT22;60446;50.752;4.352;2023-08-01T14:12:38;24.00;49.50
72440;DHT22;60446;50.752;4.352;2023-08-01T14:15:05;23.90;47.50
72440;DHT22;60446;50.752;4.352;2023-08-01T14:17:33;23.80;50.00
72440;DHT22;60446;50.752;4.352;2023-08-01T14:20:01;23.80;49.40
72440;DHT22;60446;50.752;4.352;2023-08-01T14:22:31;24.00;50.30
72440;DHT22;60446;50.752;4.352;2023-08-01T14:24:58;23.70;48.40
72440;DHT22;60446;50.752;4.352;2023-08-01T14:27:25;23.50;50.80
72440;DHT22;60446;50.752;4.352;2023-08-01T14:29:53;23.40;51.30
72440;DHT22;60446;50.752;4.352;2023-08-01T14:32:20;23.20;51.40
72440;DHT22;60446;50.752;4.352;2023-08-01T14:34:47;23.20;52.30
72440;DHT22;60446;50.752;4.352;2023-08-01T14:37:14;23.10;53.40
72440;DHT22;60446;50.752;4.352;2023-08-01T14:39:41;22.80;55.00
72440;DHT22;60446;50.752;4.352;2023-08-01T14:42:11;22.60;53.80
72440;DHT22;60446;50.752;4.352;2023-08-01T14:44:38;22.40;55.00
72440;DHT22;60446;50.752;4.352;2023-08-01T14:47:05;22.10;55.20
72440;DHT22;60446;50.752;4.352;2023-08-01T14:49:33;21.90;56.30
72440;DHT22;60446;50.752;4.352;2023-08-01T14:52:00;21.80;55.00
72440;DHT22;60446;50.752;4.352;2023-08-01T14:54:28;21.60;54.50
72440;DHT22;60446;50.752;4.352;2023-08-01T14:57:07;21.40;55.50
72440;DHT22;60446;50.752;4.352;2023-08-01T14:59:35;21.20;55.90
72440;DHT22;60446;50.752;4.352;2023-08-01T15:02:03;21.20;56.10
72440;DHT22;60446;50.752;4.352;2023-08-01T15:04:30;21.20;56.60
72440;DHT22;60446;50.752;4.352;2023-08-01T15:07:00;21.00;55.70
72440;DHT22;60446;50.752;4.352;2023-08-01T15:09:28;20.90;57.20
72440;DHT22;60446;50.752;4.352;2023-08-01T15:11:55;20.80;59.40
72440;DHT22;60446;50.752;4.352;2023-08-01T15:14:22;20.70;61.30
72440;DHT22;60446;50.752;4.352;2023-08-01T15:16:50;20.60;60.80
72440;DHT22;60446;50.752;4.352;2023-08-01T15:19:17;20.60;60.10
72440;DHT22;60446;50.752;4.352;2023-08-01T15:21:47;20.60;59.60
72440;DHT22;60446;50.752;4.352;2023-08-01T15:24:14;20.70;59.10
72440;DHT22;60446;50.752;4.352;2023-08-01T15:26:41;20.70;58.90
72440;DHT22;60446;50.752;4.352;2023-08-01T15:29:09;20.60;59.90
72440;DHT22;60446;50.752;4.352;2023-08-01T15:31:36;20.60;58.90
72440;DHT22;60446;50.752;4.352;2023-08-01T15:34:04;20.70;59.40
72440;DHT22;60446;50.752;4.352;2023-08-01T15:36:31;20.70;58.30
72440;DHT22;60446;50.752;4.352;2023-08-01T15:38:58;20.80;59.60
72440;DHT22;60446;50.752;4.352;2023-08-01T15:41:26;20.90;58.80